Time;durP1;ratioP1;P1;durP2;ratioP2;P2;SDS_P1;SDS_P2;PMS_P1;PMS_P2;Temp;Humidity;BMP_temperature;BMP_pressure;BME280_temperature;BME280_humidity;BME280_pressure;Samples;Min_cycle;Max_cycle;Signal;HPM_P1;HPM_P2
2022/01/10 00:02:25;;;;;;;19.67;12.05;;;;;;;-5.38;80.14;99476.75;5046435;28;20037;-59
2022/01/10 00:04:51;;;;;;;19.52;12.73;;;;;;;-5.31;80.59;99465.25;5045252;28;20041;-59
2022/01/10 00:07:16;;;;;;;18.27;12.23;;;;;;;-5.15;79.68;99469.22;5045642;28;20033;-59
2022/01/10 00:09:42;;;;;;;23.15;13.45;;;;;;;-5.09;79.32;99459.38;5058570;28;20210;-57
2022/01/10 00:12:08;;;;;;;22.40;12.60;;;;;;;-5.08;80.56;99448.44;5045892;28;20057;-58
2022/01/10 00:14:33;;;;;;;22.08;13.25;;;;;;;-5.31;80.17;99469.44;5039009;28;20030;-58
2022/01/10 00:16:59;;;;;;;21.73;12.95;;;;;;;-5.38;79.33;99466.66;5049296;28;20100;-58
2022/01/10 00:19:25;;;;;;;20.92;12.63;;;;;;;-5.56;81.52;99463.41;5046300;28;20033;-58
2022/01/10 00:21:50;;;;;;;20.15;12.90;;;;;;;-5.39;81.51;99464.97;5036700;28;20041;-58
2022/01/10 00:24:16;;;;;;;26.70;14.02;;;;;;;-5.21;79.82;99461.41;5048183;28;20221;-58
2022/01/10 00:26:41;;;;;;;19.92;12.00;;;;;;;-5.24;80.22;99476.44;5056095;28;20045;-58
2022/01/10 00:29:07;;;;;;;21.92;12.90;;;;;;;-5.25;80.38;99472.19;5051342;28;20029;-58
2022/01/10 00:31:33;;;;;;;19.15;12.38;;;;;;;-5.18;79.00;99469.09;5046954;28;20033;-58
2022/01/10 00:33:58;;;;;;;20.38;12.48;;;;;;;-4.92;80.33;99461.63;5049610;28;20257;-58
2022/01/10 00:36:25;;;;;;;19.98;12.20;;;;;;;-4.79;80.26;99458.75;5052271;28;20017;-57
2022/01/10 00:38:52;;;;;;;20.20;11.75;;;;;;;-4.76;79.57;99455.47;5046132;28;20237;-58
2022/01/10 00:41:17;;;;;;;19.65;11.88;;;;;;;-4.65;79.93;99458.41;5054794;28;20032;-58
2022/01/10 00:43:46;;;;;;;18.20;12.05;;;;;;;-4.63;78.45;99459.31;5053874;28;20025;-58
2022/01/10 00:46:12;;;;;;;21.45;11.60;;;;;;;-4.62;79.17;99456.81;5036921;28;20025;-57
2022/01/10 00:48:38;;;;;;;20.23;11.10;;;;;;;-4.85;77.52;99458.53;5047148;28;20096;-57
2022/01/10 00:51:04;;;;;;;17.08;10.75;;;;;;;-5.07;77.86;99451.84;5044945;28;20033;-59
2022/01/10 00:53:29;;;;;;;16.83;10.77;;;;;;;-4.76;79.22;99458.00;5043730;28;20219;-59
2022/01/10 00:55:55;;;;;;;17.48;10.32;;;;;;;-4.85;78.53;99456.84;5045348;28;20096;-60
2022/01/10 00:58:21;;;;;;;18.70;10.57;;;;;;;-4.88;78.99;99463.47;5055744;28;20037;-60
2022/01/10 01:00:47;;;;;;;21.90;12.13;;;;;;;-4.82;78.58;99466.22;5043011;28;20037;-60
2022/01/10 01:03:12;;;;;;;17.27;10.25;;;;;;;-4.78;78.19;99450.38;5044044;28;20036;-61
2022/01/10 01:05:41;;;;;;;17.67;10.68;;;;;;;-4.81;77.63;99462.91;5044839;28;20045;-59
2022/01/10 01:08:08;;;;;;;18.33;10.93;;;;;;;-5.14;78.32;99449.91;5048973;28;20020;-59
2022/01/10 01:13:49;;;;;;;20.05;10.02;;;;;;;-5.00;78.47;99402.41;5082308;28;20021;-59
2022/01/10 01:16:19;;;;;;;14.63;10.03;;;;;;;-4.69;78.45;99462.47;5044523;28;20187;-59
2022/01/10 01:24:08;;;;;;;17.52;9.90;;;;;;;-4.68;77.12;99452.41;5047817;28;20032;-59
2022/01/10 01:26:39;;;;;;;20.40;11.07;;;;;;;-5.29;78.17;99382.03;5043423;28;20034;-59
2022/01/10 01:29:07;;;;;;;16.42;10.52;;;;;;;-5.00;77.80;99435.25;5046765;28;20083;-60
2022/01/10 01:31:34;;;;;;;15.55;10.48;;;;;;;-4.88;78.03;99448.31;5051846;28;20310;-58
2022/01/10 01:34:00;;;;;;;17.30;10.05;;;;;;;-4.86;79.64;99439.13;5039732;28;20064;-58
2022/01/10 01:36:27;;;;;;;16.23;9.20;;;;;;;-5.01;79.54;99436.06;5042103;28;20097;-58
2022/01/10 01:38:54;;;;;;;17.45;9.77;;;;;;;-5.56;79.50;99375.13;5053490;28;20037;-59
2022/01/10 01:43:49;;;;;;;17.65;10.10;;;;;;;-5.16;80.66;99441.38;5042769;28;20042;-59
2022/01/10 01:46:15;;;;;;;16.33;9.80;;;;;;;-5.20;80.20;99448.00;5043839;28;20360;-59
2022/01/10 01:48:41;;;;;;;15.57;9.80;;;;;;;-5.21;80.53;99434.50;5043687;28;20056;-58
2022/01/10 01:51:06;;;;;;;14.15;9.07;;;;;;;-4.99;78.83;99430.25;5049969;28;20214;-58
2022/01/10 01:53:33;;;;;;;16.33;9.90;;;;;;;-4.93;79.86;99422.91;5047649;28;20120;-59
2022/01/10 01:55:59;;;;;;;15.88;9.75;;;;;;;-4.96;78.29;99430.38;5048439;28;20260;-59
2022/01/10 01:58:26;;;;;;;14.45;8.85;;;;;;;-5.04;78.21;99421.66;5043155;28;20037;-60
2022/01/10 02:00:52;;;;;;;17.33;9.85;;;;;;;-4.92;78.58;99416.19;5056602;28;20049;-59
2022/01/10 02:03:18;;;;;;;17.50;9.20;;;;;;;-5.05;78.41;99409.84;5043160;28;20033;-58
2022/01/10 02:05:44;;;;;;;14.00;8.70;;;;;;;-5.21;78.94;99429.47;5034275;28;20255;-59
2022/01/10 02:08:10;;;;;;;16.10;9.40;;;;;;;-5.23;79.44;99410.00;5055596;28;20036;-59
2022/01/10 02:10:37;;;;;;;23.10;9.70;;;;;;;-5.11;80.18;99427.28;5046141;28;20132;-59
2022/01/10 02:13:04;;;;;;;19.10;9.68;;;;;;;-4.99;80.12;99421.81;5043431;28;20037;-59
2022/01/10 02:18:20;;;;;;;15.50;9.27;;;;;;;-4.87;79.24;99417.22;5043412;28;20029;-60
2022/01/10 02:20:46;;;;;;;13.57;8.93;;;;;;;-4.71;78.67;99416.94;5034585;28;20040;-61
2022/01/10 02:23:13;;;;;;;14.27;8.60;;;;;;;-4.88;77.95;99420.53;5046982;28;20024;-63
2022/01/10 02:25:40;;;;;;;15.48;9.07;;;;;;;-4.92;78.67;99423.75;5053504;28;20096;-60
2022/01/10 02:28:06;;;;;;;14.85;8.90;;;;;;;-4.95;78.57;99426.19;5038674;28;20094;-62
2022/01/10 02:30:32;;;;;;;16.48;9.43;;;;;;;-5.02;78.07;99420.03;5041771;28;20035;-61
2022/01/10 02:33:00;;;;;;;16.85;9.40;;;;;;;-5.15;78.80;99422.94;5051834;28;20093;-60
2022/01/10 02:35:52;;;;;;;13.77;8.52;;;;;;;-5.05;79.32;99447.69;5038227;28;20033;-61
2022/01/10 02:38:18;;;;;;;15.02;8.73;;;;;;;-5.24;80.02;99433.53;5041823;28;20088;-62
2022/01/10 02:40:45;;;;;;;15.52;9.65;;;;;;;-5.27;80.17;99413.25;5054592;28;20041;-61
2022/01/10 02:43:11;;;;;;;17.65;9.30;;;;;;;-5.23;80.59;99428.56;5049251;28;20253;-60
2022/01/10 02:45:37;;;;;;;19.35;9.88;;;;;;;-5.48;79.47;99408.25;5042540;28;20021;-61
2022/01/10 02:48:02;;;;;;;15.80;9.27;;;;;;;-5.29;79.35;99435.03;5043140;28;20041;-61
2022/01/10 02:50:28;;;;;;;18.63;9.32;;;;;;;-5.30;80.64;99420.66;5048992;28;20017;-61
2022/01/10 02:52:54;;;;;;;18.40;10.48;;;;;;;-5.22;78.96;99426.88;5042735;28;20144;-60
2022/01/10 02:55:19;;;;;;;17.92;10.38;;;;;;;-5.30;79.74;99415.63;5043548;28;20021;-60
2022/01/10 02:57:45;;;;;;;18.60;9.80;;;;;;;-5.46;79.77;99427.66;5051585;28;20337;-60
2022/01/10 03:00:13;;;;;;;19.95;10.13;;;;;;;-5.46;80.72;99421.75;5048462;28;20377;-61
2022/01/10 03:02:41;;;;;;;20.67;11.15;;;;;;;-5.38;80.63;99423.78;5042799;28;20456;-61
2022/01/10 03:05:07;;;;;;;16.10;10.30;;;;;;;-5.35;80.83;99430.59;5043007;28;20048;-61
2022/01/10 03:07:33;;;;;;;17.92;9.15;;;;;;;-5.41;79.55;99426.19;5043011;28;20092;-61
2022/01/10 03:09:58;;;;;;;18.88;10.57;;;;;;;-5.27;79.10;99429.22;5042085;28;20455;-61
2022/01/10 03:12:25;;;;;;;19.02;10.15;;;;;;;-5.29;79.04;99437.53;5051684;28;20041;-61
2022/01/10 03:14:50;;;;;;;15.25;10.35;;;;;;;-5.43;80.00;99432.84;5048728;28;20316;-62
2022/01/10 03:17:16;;;;;;;18.55;8.95;;;;;;;-5.26;79.69;99445.22;5041960;28;20037;-61
2022/01/10 03:19:43;;;;;;;15.93;8.57;;;;;;;-5.23;80.25;99437.75;5045065;28;20226;-62
2022/01/10 03:22:10;;;;;;;17.23;8.88;;;;;;;-5.31;80.68;99454.31;5050206;28;20025;-61
2022/01/10 03:24:36;;;;;;;16.92;9.52;;;;;;;-5.13;79.48;99441.50;5033960;28;20029;-60
2022/01/10 03:27:02;;;;;;;16.70;8.88;;;;;;;-5.17;79.05;99439.66;5057858;28;20083;-61
2022/01/10 03:29:28;;;;;;;17.98;9.00;;;;;;;-5.25;78.93;99441.91;5040468;28;20072;-60
2022/01/10 03:31:54;;;;;;;16.92;9.50;;;;;;;-5.11;78.81;99427.28;5033441;28;20026;-61
2022/01/10 03:34:19;;;;;;;19.35;9.50;;;;;;;-4.94;79.76;99431.28;5053998;28;20254;-61
2022/01/10 03:36:46;;;;;;;19.95;9.23;;;;;;;-4.96;78.44;99439.59;5057612;28;20097;-61
2022/01/10 03:39:13;;;;;;;16.15;8.50;;;;;;;-4.90;78.30;99434.78;5038963;28;20062;-61
2022/01/10 03:41:39;;;;;;;17.50;9.27;;;;;;;-4.97;79.80;99453.03;5036993;28;20032;-62
2022/01/10 03:44:06;;;;;;;13.98;8.50;;;;;;;-5.28;77.96;99378.72;5046350;28;20144;-62
2022/01/10 03:46:33;;;;;;;15.52;8.57;;;;;;;-4.81;78.36;99450.25;5046668;28;20195;-62
2022/01/10 03:49:00;;;;;;;19.48;9.30;;;;;;;-4.78;78.54;99452.91;5047370;28;20040;-61
2022/01/10 03:51:26;;;;;;;13.80;7.72;;;;;;;-5.11;78.34;99457.59;5058042;28;20041;-61
2022/01/10 03:53:51;;;;;;;14.13;8.20;;;;;;;-5.13;79.40;99460.06;5054579;28;20242;-61
2022/01/10 03:56:17;;;;;;;15.35;10.02;;;;;;;-5.06;78.38;99453.53;5047561;28;20075;-60
2022/01/10 03:58:43;;;;;;;20.95;10.68;;;;;;;-5.26;77.98;99462.88;5045790;28;20222;-61
2022/01/10 04:01:09;;;;;;;22.30;12.32;;;;;;;-5.39;79.87;99472.53;5053874;28;20032;-61
2022/01/10 04:03:37;;;;;;;13.43;7.78;;;;;;;-5.44;79.19;99450.44;5048060;28;20040;-60
2022/01/10 04:06:03;;;;;;;11.95;8.00;;;;;;;-5.50;80.63;99477.94;5051137;28;20028;-61
2022/01/10 04:08:29;;;;;;;15.00;8.45;;;;;;;-5.50;79.76;99460.28;5056503;28;20036;-61
2022/01/10 04:10:54;;;;;;;12.32;7.65;;;;;;;-5.59;81.19;99455.75;5050988;28;20167;-61
2022/01/10 04:13:20;;;;;;;17.00;9.13;;;;;;;-5.46;79.87;99467.16;5045187;28;20049;-61
2022/01/10 04:15:46;;;;;;;23.50;11.02;;;;;;;-5.54;79.93;99451.75;5030906;28;20029;-59
2022/01/10 04:18:11;;;;;;;16.60;9.43;;;;;;;-5.38;80.85;99455.72;5045675;28;20075;-60
2022/01/10 04:20:37;;;;;;;21.35;10.20;;;;;;;-5.26;79.48;99460.38;5045525;28;20029;-60
2022/01/10 04:23:03;;;;;;;12.65;7.82;;;;;;;-5.17;81.00;99458.22;5057515;28;20214;-61
2022/01/10 04:25:28;;;;;;;15.05;8.10;;;;;;;-4.98;80.40;99456.38;5051861;28;20033;-61
2022/01/10 04:27:54;;;;;;;13.32;7.70;;;;;;;-5.05;80.04;99466.22;5046225;28;20044;-61
2022/01/10 04:30:19;;;;;;;13.38;8.55;;;;;;;-4.99;80.39;99459.69;5050500;28;20020;-61
2022/01/10 04:32:45;;;;;;;13.65;6.90;;;;;;;-5.01;78.34;99467.22;5053605;28;20091;-62
2022/01/10 04:35:11;;;;;;;12.48;7.43;;;;;;;-5.05;79.66;99470.41;5045088;28;20217;-60
2022/01/10 04:37:38;;;;;;;14.68;8.00;;;;;;;-5.01;78.74;99469.72;5044286;28;20377;-60
2022/01/10 04:40:04;;;;;;;12.88;7.00;;;;;;;-5.21;78.73;99453.84;5031859;28;20270;-61
2022/01/10 04:42:30;;;;;;;12.70;7.10;;;;;;;-5.14;79.64;99468.41;5049662;28;20052;-61
2022/01/10 04:44:56;;;;;;;13.23;7.72;;;;;;;-5.12;79.25;99466.78;5045223;28;20341;-60
2022/01/10 04:47:22;;;;;;;12.85;7.25;;;;;;;-5.18;79.72;99461.53;5054669;28;20044;-60
2022/01/10 04:52:19;;;;;;;11.90;6.93;;;;;;;-4.85;78.87;99472.00;5044277;28;20333;-61
2022/01/10 04:54:45;;;;;;;12.10;6.80;;;;;;;-4.95;78.64;99462.38;5051322;28;20064;-61
2022/01/10 04:57:10;;;;;;;12.55;7.43;;;;;;;-4.76;78.44;99474.03;5053280;28;20025;-61
2022/01/10 04:59:36;;;;;;;10.27;6.20;;;;;;;-4.59;78.53;99476.28;5038498;28;20051;-61
2022/01/10 05:02:02;;;;;;;10.55;7.03;;;;;;;-4.88;79.17;99476.94;5032080;28;20035;-61
2022/01/10 05:04:27;;;;;;;11.95;6.30;;;;;;;-4.90;78.32;99480.25;5043805;28;20037;-61
2022/01/10 05:06:53;;;;;;;9.43;5.68;;;;;;;-5.03;77.95;99482.31;5049619;28;20060;-60
2022/01/10 05:09:18;;;;;;;9.38;6.65;;;;;;;-4.90;78.60;99488.66;5043637;28;20049;-60
2022/01/10 05:11:45;;;;;;;12.18;7.40;;;;;;;-4.87;79.75;99487.94;5051313;28;20025;-61
2022/01/10 05:14:12;;;;;;;10.82;6.22;;;;;;;-5.22;80.09;99488.28;5039167;28;20030;-62
2022/01/10 05:16:39;;;;;;;11.23;6.60;;;;;;;-4.90;80.30;99491.19;5047683;28;20031;-61
2022/01/10 05:19:05;;;;;;;12.05;6.57;;;;;;;-5.11;79.26;99506.38;5057276;28;20067;-61
2022/01/10 05:21:30;;;;;;;10.43;5.53;;;;;;;-5.37;78.95;99498.69;5047034;28;20234;-60
2022/01/10 05:23:56;;;;;;;12.20;6.00;;;;;;;-5.35;80.21;99505.44;5046387;28;20032;-60
2022/01/10 05:26:21;;;;;;;10.82;5.95;;;;;;;-5.24;79.23;99516.81;5056678;28;20026;-61
2022/01/10 05:28:47;;;;;;;9.23;6.35;;;;;;;-5.28;78.96;99504.88;5044143;28;20034;-61
2022/01/10 05:31:13;;;;;;;9.88;5.72;;;;;;;-5.28;79.56;99509.94;5043095;28;20095;-62
2022/01/10 05:33:38;;;;;;;12.70;6.25;;;;;;;-5.24;78.74;99504.22;5033008;28;20100;-61
2022/01/10 05:36:04;;;;;;;8.20;5.50;;;;;;;-5.25;79.49;99512.56;5043592;28;20059;-62
2022/01/10 05:38:30;;;;;;;12.98;6.10;;;;;;;-5.17;80.48;99511.22;5044332;28;20021;-62
2022/01/10 05:40:55;;;;;;;10.63;5.90;;;;;;;-5.00;79.38;99523.59;5052557;28;20071;-60
2022/01/10 05:43:21;;;;;;;8.85;5.53;;;;;;;-5.01;80.39;99520.22;5055478;28;20040;-59
2022/01/10 05:45:47;;;;;;;8.73;5.07;;;;;;;-5.05;79.94;99523.44;5037333;28;20021;-56
2022/01/10 05:48:20;;;;;;;9.93;5.82;;;;;;;-4.97;78.90;99524.59;5045910;28;20036;-56
2022/01/10 05:50:46;;;;;;;13.27;6.65;;;;;;;-4.87;80.27;99530.88;5054168;28;20024;-57
2022/01/10 05:53:12;;;;;;;12.23;6.05;;;;;;;-4.89;78.46;99529.94;5044326;28;20220;-56
2022/01/10 05:55:38;;;;;;;8.63;5.35;;;;;;;-4.76;79.61;99544.75;5045288;28;20159;-58
2022/01/10 05:58:05;;;;;;;10.02;5.45;;;;;;;-4.88;79.25;99546.81;5055600;28;20075;-59
2022/01/10 06:00:32;;;;;;;8.77;5.13;;;;;;;-4.80;78.59;99550.50;5026248;28;20112;-59
2022/01/10 06:02:57;;;;;;;7.63;5.28;;;;;;;-4.73;79.93;99546.50;5045403;28;20037;-59
2022/01/10 06:05:29;;;;;;;10.00;6.15;;;;;;;-4.81;79.23;99538.66;5052307;28;20587;-59
2022/01/10 06:07:54;;;;;;;11.57;6.00;;;;;;;-4.74;78.25;99549.88;5044020;28;20033;-58
2022/01/10 06:10:20;;;;;;;12.75;6.30;;;;;;;-4.65;79.47;99545.16;5032517;28;20061;-59
2022/01/10 06:12:45;;;;;;;9.88;5.78;;;;;;;-4.56;79.95;99542.97;5040858;28;20306;-57
2022/01/10 06:15:11;;;;;;;12.02;6.32;;;;;;;-4.70;78.42;99544.97;5053682;28;20035;-58
2022/01/10 06:17:36;;;;;;;8.20;5.20;;;;;;;-4.68;78.92;99543.34;5048024;28;20033;-58
2022/01/10 06:20:03;;;;;;;9.68;5.20;;;;;;;-4.64;79.21;99544.34;5043645;28;20032;-57
2022/01/10 06:22:29;;;;;;;8.40;5.38;;;;;;;-4.55;78.68;99553.94;5042903;28;20029;-58
2022/01/10 06:24:56;;;;;;;8.73;5.18;;;;;;;-4.71;78.67;99553.34;5049317;28;20222;-57
2022/01/10 06:27:21;;;;;;;9.88;6.32;;;;;;;-4.60;78.79;99547.84;5043365;28;20289;-57
2022/01/10 06:29:47;;;;;;;7.90;4.78;;;;;;;-4.70;78.97;99559.28;5047417;28;20042;-57
2022/01/10 06:32:12;;;;;;;8.50;4.60;;;;;;;-5.05;79.31;99558.78;5044684;28;20029;-57
2022/01/10 06:34:38;;;;;;;7.63;4.53;;;;;;;-4.92;78.09;99558.44;5042154;28;20380;-57
2022/01/10 06:37:04;;;;;;;6.80;4.32;;;;;;;-5.08;77.35;99559.53;5039794;28;20044;-58
2022/01/10 06:39:30;;;;;;;7.75;4.25;;;;;;;-5.23;78.83;99562.31;5043855;28;20083;-58
2022/01/10 06:41:55;;;;;;;8.38;5.00;;;;;;;-5.11;78.29;99556.88;5045679;28;20087;-58
2022/01/10 06:44:21;;;;;;;7.15;4.43;;;;;;;-5.04;79.49;99566.41;5041554;28;20033;-58
2022/01/10 06:46:46;;;;;;;8.02;4.53;;;;;;;-4.89;79.76;99557.72;5039592;28;20037;-57
2022/01/10 06:49:12;;;;;;;7.82;4.85;;;;;;;-4.90;78.56;99568.63;5043733;28;20151;-58
2022/01/10 06:51:37;;;;;;;7.65;5.05;;;;;;;-4.72;78.98;99570.97;5041612;28;20357;-58
2022/01/10 06:54:03;;;;;;;5.85;4.03;;;;;;;-4.81;77.53;99576.53;5043181;28;20055;-58
2022/01/10 06:56:29;;;;;;;8.85;4.20;;;;;;;-5.18;79.33;99579.31;5042206;28;20032;-58
2022/01/10 06:58:54;;;;;;;7.55;4.68;;;;;;;-4.98;80.02;99568.31;5039323;28;20104;-57
2022/01/10 07:01:20;;;;;;;7.20;4.15;;;;;;;-5.10;79.88;99568.72;5039767;28;20206;-58
2022/01/10 07:03:46;;;;;;;8.60;4.20;;;;;;;-5.16;79.88;99577.69;5038525;28;20333;-57
2022/01/10 07:06:13;;;;;;;8.20;4.20;;;;;;;-5.11;79.60;99574.56;5040950;28;20054;-57
2022/01/10 07:08:39;;;;;;;7.63;4.55;;;;;;;-4.98;80.50;99570.00;5043880;28;20033;-57
2022/01/10 07:11:05;;;;;;;6.70;4.05;;;;;;;-4.87;78.79;99571.28;5043225;28;20289;-58
2022/01/10 07:13:30;;;;;;;7.72;4.60;;;;;;;-5.10;79.34;99575.41;5044008;28;20087;-57
2022/01/10 07:15:56;;;;;;;7.18;4.05;;;;;;;-5.11;79.37;99576.22;5045246;28;20260;-58
2022/01/10 07:18:21;;;;;;;8.02;4.38;;;;;;;-5.32;79.11;99583.78;5048111;28;20029;-58
2022/01/10 07:20:47;;;;;;;9.13;4.32;;;;;;;-5.24;80.12;99580.78;5045963;28;20029;-58
2022/01/10 07:23:12;;;;;;;10.23;4.57;;;;;;;-5.06;79.46;99589.88;5044893;28;20314;-59
2022/01/10 07:25:38;;;;;;;7.28;4.15;;;;;;;-5.06;78.79;99585.69;5046423;28;20364;-58
2022/01/10 07:28:04;;;;;;;6.93;4.15;;;;;;;-5.15;78.57;99590.38;5047524;28;20051;-57
2022/01/10 07:30:30;;;;;;;5.65;3.95;;;;;;;-5.02;80.80;99589.19;5033115;28;20036;-58
2022/01/10 07:32:55;;;;;;;7.63;4.85;;;;;;;-4.86;78.45;99580.53;5044203;28;20042;-59
2022/01/10 07:35:21;;;;;;;6.90;4.20;;;;;;;-4.90;78.56;99581.25;5046241;28;20045;-58
2022/01/10 07:37:46;;;;;;;8.73;5.22;;;;;;;-4.83;80.14;99588.28;5049386;28;20029;-57
2022/01/10 07:40:12;;;;;;;7.20;4.53;;;;;;;-4.90;79.00;99597.25;5057094;28;20053;-58
2022/01/10 07:42:38;;;;;;;7.25;4.22;;;;;;;-4.92;79.80;99582.84;5054011;28;20063;-59
2022/01/10 07:45:04;;;;;;;5.78;4.00;;;;;;;-5.27;79.04;99568.03;5045003;28;20056;-58
2022/01/10 07:47:31;;;;;;;6.07;4.43;;;;;;;-5.14;80.44;99576.97;5051963;28;20060;-58
2022/01/10 07:49:56;;;;;;;8.30;4.35;;;;;;;-5.25;80.62;99585.75;5051548;28;20306;-58
2022/01/10 07:52:22;;;;;;;8.82;4.95;;;;;;;-5.18;80.23;99587.72;5050623;28;20033;-58
2022/01/10 07:54:48;;;;;;;9.48;4.97;;;;;;;-5.07;80.75;99586.50;5045537;28;20099;-58
2022/01/10 07:57:14;;;;;;;9.70;5.22;;;;;;;-5.06;79.25;99580.66;5054719;28;20061;-58
2022/01/10 07:59:40;;;;;;;6.43;4.40;;;;;;;-5.03;78.40;99585.81;5044628;28;20071;-58
2022/01/10 08:02:06;;;;;;;8.48;4.75;;;;;;;-5.00;80.00;99591.78;5043724;28;20105;-59
2022/01/10 08:04:32;;;;;;;8.35;4.78;;;;;;;-5.11;80.35;99592.22;5049941;28;20048;-58
2022/01/10 08:06:57;;;;;;;7.78;4.30;;;;;;;-4.85;79.95;99589.84;5044728;28;20369;-58
2022/01/10 08:09:23;;;;;;;9.18;4.63;;;;;;;-4.94;80.20;99571.84;5045807;28;20033;-58
2022/01/10 08:11:48;;;;;;;6.78;4.30;;;;;;;-4.93;80.55;99587.03;5045876;28;20040;-58
2022/01/10 08:14:14;;;;;;;5.72;4.43;;;;;;;-4.74;79.89;99591.13;5048657;28;20021;-58
2022/01/10 08:16:40;;;;;;;7.05;5.05;;;;;;;-4.56;78.93;99593.50;5047010;28;20269;-57
2022/01/10 08:19:06;;;;;;;8.07;4.78;;;;;;;-4.45;79.81;99596.41;5056324;28;20029;-57
2022/01/10 08:21:32;;;;;;;8.65;5.00;;;;;;;-4.60;79.41;99596.72;5053609;28;20067;-58
2022/01/10 08:23:57;;;;;;;7.10;4.57;;;;;;;-4.68;78.51;99583.78;5058552;28;20033;-58
2022/01/10 08:26:23;;;;;;;8.75;4.68;;;;;;;-4.68;78.74;99603.97;5059114;28;20032;-57
2022/01/10 08:28:49;;;;;;;9.05;4.93;;;;;;;-4.58;80.11;99592.56;5045767;28;20036;-57
2022/01/10 08:31:15;;;;;;;7.65;4.70;;;;;;;-4.65;78.52;99592.28;5038605;28;20033;-58
2022/01/10 08:33:41;;;;;;;9.05;4.70;;;;;;;-4.55;79.25;99584.25;5040226;28;20079;-57
2022/01/10 08:36:07;;;;;;;7.53;4.75;;;;;;;-4.39;78.88;99596.66;5045706;28;20322;-57
2022/01/10 08:38:33;;;;;;;8.15;5.28;;;;;;;-4.31;79.44;99579.25;5047258;28;20070;-58
2022/01/10 08:40:59;;;;;;;8.35;5.30;;;;;;;-4.15;78.61;99585.69;5044663;28;20037;-57
2022/01/10 08:43:25;;;;;;;8.90;4.57;;;;;;;-4.12;79.19;99600.97;5044409;28;20037;-58
2022/01/10 08:45:50;;;;;;;12.52;5.60;;;;;;;-4.13;78.56;99594.22;5044214;28;20091;-58
2022/01/10 08:48:16;;;;;;;8.68;5.25;;;;;;;-4.20;78.29;99592.28;5046796;28;20037;-59
2022/01/10 08:50:42;;;;;;;6.57;4.00;;;;;;;-4.38;78.49;99592.47;5045286;28;20053;-57
2022/01/10 08:53:09;;;;;;;8.88;5.40;;;;;;;-4.47;78.36;99527.28;5051875;28;20030;-57
2022/01/10 08:55:35;;;;;;;6.03;4.13;;;;;;;-4.22;78.55;99596.41;5044954;28;20029;-57
2022/01/10 08:58:01;;;;;;;8.00;4.28;;;;;;;-4.24;78.56;99608.13;5045157;28;20037;-58
2022/01/10 09:00:27;;;;;;;7.70;4.63;;;;;;;-4.05;79.16;99605.44;5044625;28;20026;-58
2022/01/10 09:02:53;;;;;;;8.68;4.95;;;;;;;-4.01;77.54;99603.91;5041518;28;20333;-57
2022/01/10 09:05:19;;;;;;;9.10;4.45;;;;;;;-4.03;78.38;99603.00;5043784;28;20033;-58
2022/01/10 09:07:46;;;;;;;7.00;4.50;;;;;;;-4.03;77.41;99608.06;5044408;28;20021;-58
2022/01/10 09:10:12;;;;;;;7.53;3.92;;;;;;;-3.91;77.23;99605.09;5049636;28;20376;-58
2022/01/10 09:12:38;;;;;;;7.25;4.68;;;;;;;-3.94;76.70;99605.00;5044890;28;20352;-57
2022/01/10 09:15:06;;;;;;;6.22;4.10;;;;;;;-4.02;77.69;99582.81;5044910;28;20025;-57
2022/01/10 09:17:31;;;;;;;9.90;4.75;;;;;;;-3.90;77.73;99609.34;5049719;28;20029;-57
2022/01/10 09:19:57;;;;;;;5.65;3.70;;;;;;;-4.21;77.96;99598.13;5044397;28;20230;-58
2022/01/10 09:22:23;;;;;;;6.25;4.00;;;;;;;-3.95;78.03;99599.06;5044497;28;20033;-59
2022/01/10 09:24:49;;;;;;;6.22;4.18;;;;;;;-4.07;77.23;99593.59;5044232;28;20025;-57
2022/01/10 09:27:16;;;;;;;7.57;4.05;;;;;;;-4.02;77.36;99574.34;5044228;28;20037;-57
2022/01/10 09:29:42;;;;;;;7.22;4.15;;;;;;;-3.95;76.26;99594.00;5045328;28;20055;-58
2022/01/10 09:32:09;;;;;;;8.63;4.30;;;;;;;-3.82;77.76;99585.16;5049448;28;20056;-58
2022/01/10 09:34:35;;;;;;;9.85;3.67;;;;;;;-3.83;75.71;99596.97;5042156;28;20249;-58
2022/01/10 09:37:00;;;;;;;7.97;4.18;;;;;;;-3.86;76.18;99579.16;5043308;28;20033;-59
2022/01/10 09:39:26;;;;;;;7.13;3.83;;;;;;;-3.73;76.08;99593.09;5054118;28;20156;-57
2022/01/10 09:41:52;;;;;;;7.47;3.63;;;;;;;-3.67;76.88;99593.28;5037814;28;20030;-58
2022/01/10 09:44:18;;;;;;;8.63;3.80;;;;;;;-3.76;75.85;99587.03;5053374;28;20207;-58
2022/01/10 09:46:48;;;;;;;7.53;3.92;;;;;;;-3.67;75.96;99588.22;5049182;28;20037;-58
2022/01/10 09:49:14;;;;;;;5.28;3.60;;;;;;;-4.03;76.04;99586.16;5036565;28;20029;-58
2022/01/10 09:51:40;;;;;;;6.80;2.92;;;;;;;-4.26;77.07;99604.69;5046868;28;20033;-58
2022/01/10 09:54:05;;;;;;;6.65;3.58;;;;;;;-4.19;76.91;99577.16;5046130;28;20023;-59
2022/01/10 09:56:31;;;;;;;6.05;3.67;;;;;;;-4.23;77.16;99582.91;5048468;28;20267;-58
2022/01/10 09:58:59;;;;;;;7.38;3.88;;;;;;;-4.20;76.55;99580.50;5042616;28;20089;-58
2022/01/10 10:01:26;;;;;;;6.35;3.33;;;;;;;-4.10;76.76;99585.88;5040827;28;20314;-56
2022/01/10 10:03:53;;;;;;;5.22;3.20;;;;;;;-3.97;76.48;99574.53;5043956;28;20233;-57
2022/01/10 10:06:19;;;;;;;6.57;3.25;;;;;;;-4.07;75.97;99584.31;5047028;28;20061;-58
2022/01/10 10:08:45;;;;;;;6.20;3.08;;;;;;;-3.92;76.24;99590.72;5042903;28;20191;-56
2022/01/10 10:11:12;;;;;;;5.05;2.92;;;;;;;-4.18;75.98;99585.59;5052087;28;20090;-57
2022/01/10 10:13:53;;;;;;;8.60;3.80;;;;;;;-4.06;76.23;99600.34;5037334;28;20028;-58
2022/01/10 10:16:20;;;;;;;5.40;3.33;;;;;;;-4.17;76.33;99599.97;5041755;28;20374;-58
2022/01/10 10:18:47;;;;;;;7.25;3.20;;;;;;;-3.92;77.08;99593.25;5049565;28;20036;-57
2022/01/10 10:21:15;;;;;;;6.43;3.65;;;;;;;-4.05;76.40;99592.81;5043863;28;20030;-58
2022/01/10 10:23:46;;;;;;;5.13;3.20;;;;;;;-4.24;76.23;99606.47;5043485;28;20031;-56
2022/01/10 10:26:16;;;;;;;5.70;3.37;;;;;;;-4.15;76.84;99613.50;5054042;28;20025;-57
2022/01/10 10:28:44;;;;;;;4.70;3.05;;;;;;;-4.67;76.78;99554.34;5048509;28;20430;-57
2022/01/10 10:31:10;;;;;;;8.93;3.88;;;;;;;-4.27;76.20;99610.56;5044104;28;20021;-57
2022/01/10 10:33:45;;;;;;;5.32;2.88;;;;;;;-4.17;77.40;99603.34;5052582;28;20029;-58
2022/01/10 10:36:11;;;;;;;5.60;3.30;;;;;;;-4.08;76.46;99600.28;5057068;28;20044;-58
2022/01/10 10:38:37;;;;;;;7.20;3.20;;;;;;;-4.23;75.94;99603.13;5044472;28;20319;-57
2022/01/10 10:41:04;;;;;;;5.95;3.03;;;;;;;-4.30;77.10;99600.31;5043189;28;20029;-57
2022/01/10 10:43:36;;;;;;;4.97;3.38;;;;;;;-4.24;76.29;99631.75;5049785;28;20052;-58
2022/01/10 10:46:03;;;;;;;6.18;4.10;;;;;;;-4.41;77.72;99567.06;5039579;28;20222;-57
2022/01/10 10:48:30;;;;;;;7.05;3.55;;;;;;;-4.21;77.45;99606.56;5042098;28;20038;-57
2022/01/10 10:50:59;;;;;;;5.20;3.20;;;;;;;-4.24;77.58;99615.72;5043482;28;20033;-58
2022/01/10 10:53:26;;;;;;;3.25;2.75;;;;;;;-4.63;77.21;99543.56;5043083;28;20218;-57
2022/01/10 10:55:52;;;;;;;4.00;2.65;;;;;;;-4.40;77.21;99599.97;5043543;28;20033;-57
2022/01/10 10:58:18;;;;;;;5.63;3.17;;;;;;;-4.03;76.58;99616.50;5052934;28;20221;-57
2022/01/10 11:00:43;;;;;;;4.88;3.30;;;;;;;-3.93;76.72;99607.56;5052101;28;20041;-57
2022/01/10 11:03:12;;;;;;;5.07;2.95;;;;;;;-4.11;76.12;99622.09;5043143;28;20052;-57
2022/01/10 11:05:38;;;;;;;6.72;3.17;;;;;;;-4.01;76.75;99622.47;5041604;28;20064;-57
2022/01/10 11:08:05;;;;;;;6.03;3.30;;;;;;;-4.09;76.80;99613.75;5041791;28;20025;-58
2022/01/10 11:10:30;;;;;;;5.95;3.17;;;;;;;-4.00;76.82;99620.81;5039027;28;20112;-58
2022/01/10 11:12:59;;;;;;;5.53;3.03;;;;;;;-4.16;76.46;99584.84;5041835;28;20226;-57
2022/01/10 11:15:25;;;;;;;6.53;3.33;;;;;;;-4.61;76.10;99549.50;5047873;28;20354;-58
2022/01/10 11:17:58;;;;;;;4.28;2.58;;;;;;;-4.29;77.50;99622.25;5042374;28;20060;-57
2022/01/10 11:20:25;;;;;;;4.78;2.85;;;;;;;-4.46;77.10;99609.00;5042035;28;20025;-58
2022/01/10 11:22:55;;;;;;;4.80;3.10;;;;;;;-4.52;77.66;99575.13;5041133;28;20021;-58
2022/01/10 11:25:31;;;;;;;6.07;3.03;;;;;;;-4.20;77.19;99610.81;5041561;28;20026;-58
2022/01/10 11:28:00;;;;;;;4.97;3.00;;;;;;;-4.82;77.95;99539.44;5028035;28;20029;-58
2022/01/10 11:30:32;;;;;;;5.60;2.60;;;;;;;-4.57;77.01;99616.19;5041151;28;20267;-57
2022/01/10 11:33:04;;;;;;;5.80;2.72;;;;;;;-4.61;77.39;99609.28;5042383;28;20373;-57
2022/01/10 11:35:40;;;;;;;6.65;3.13;;;;;;;-4.81;78.30;99584.13;5048934;28;20029;-58
2022/01/10 11:38:19;;;;;;;4.63;3.20;;;;;;;-4.39;79.05;99634.56;5049207;28;20337;-58
2022/01/10 11:40:54;;;;;;;5.53;3.03;;;;;;;-4.78;77.90;99543.81;5041495;28;20282;-57
2022/01/10 11:43:52;;;;;;;3.67;2.67;;;;;;;-4.69;78.86;99606.44;5054531;28;20104;-58